Latest Coastal Weather Observations for Gabo Island (VIC)

IDN60701

Issued at 1:11 pm EST Saturday 29 August 2015 (issued every 10 minutes, with the page automatically refreshed every 10 minutes)

About coastal observations | Map of coastal stations | Coastal observations for NSW | Marine services | Other Formats
Station Details ID: 084016 Name: GABO ISLAND LIGHTHOUSE Lat: -37.57 Lon: 149.92 Height: 15.2 m
Data from the previous 72 hours. | See also: Recent months at Gabo Island (VIC)
Date/Time
EST
Temp

°C
Wind Pressure Rain
since 9am
mm
Weather Cloud Vis
km
Sea
Height
m
Swell
Dir
 
Speed
knots
Gust
knots
hPa Trend Height
m
Period
s
Dir
29/01:09pm 11.2 W 25 35 1017.7 - 0.0 - - - - - - -
29/01:00pm 11.0 W 25 33 1018.0 - 0.0 - - - - - - -
29/12:45pm 10.7 W 26 39 1018.2 - 0.0 - - - - - - -
29/12:30pm 11.2 W 25 33 1018.4 - 0.0 - - - - - - -
29/12:00pm 11.0 W 26 35 1018.9 - 0.0 - - - - - - -
29/11:30am 10.8 W 25 35 1019.2 - 0.0 - - - - - - -
29/11:05am 11.0 W 25 36 1019.4 - 0.0 - - - - - - -
29/11:00am 10.8 W 23 31 1019.4 - 0.0 - - - - - - -
29/10:30am 10.7 W 22 29 1019.8 - 0.0 - - - - - - -
29/10:00am 10.4 W 21 27 1019.9 - 0.0 - - - - - - -
29/09:30am 9.8 W 19 27 1020.5 - 0.0 - - - - - - -
29/09:00am 9.1 W 24 32 1020.8 - 1.4 Fine Mostly clear 40 2 1.0 - -
29/08:30am 8.9 W 26 33 1020.8 - 1.4 - - - - - - -
29/08:01am 8.7 W 22 32 1020.9 - 1.4 - - - - - - -
29/08:00am 8.9 W 22 29 1021.0 - 1.4 - - - - - - -
29/07:30am 8.1 W 20 27 1020.8 - 1.4 - - - - - - -
29/07:00am 8.1 W 20 26 1020.9 - 1.4 - - - - - - -
29/06:30am 7.4 WNW 14 20 1020.9 - 1.4 - - - - - - -
29/06:00am 7.4 WNW 13 20 1020.8 - 1.4 - - - - - - -
29/05:30am 7.8 W 15 19 1020.8 - 1.4 - - - - - - -
29/05:00am 7.4 WNW 13 19 1020.7 - 1.4 - - - - - - -
29/04:30am 7.9 WNW 12 16 1020.8 - 1.4 - - - - - - -
29/04:00am 8.0 W 13 18 1021.0 - 1.4 - - - - - - -
29/03:30am 8.3 W 13 19 1021.2 - 1.4 - - - - - - -
29/03:00am 8.5 W 16 19 1021.3 - 1.4 Fine Mostly cloudy 30 1 1.0 - -
29/02:30am 8.8 W 16 19 1021.3 - 1.4 - - - - - - -
29/02:00am 8.7 W 12 16 1021.8 - 1.4 - - - - - - -
29/01:30am 8.9 WSW 16 20 1022.0 - 1.4 - - - - - - -
29/01:00am 9.3 WSW 16 21 1022.1 - 1.4 - - - - - - -
29/12:30am 9.3 W 11 15 1022.1 - 1.4 - - - - - - -
29/12:00am 9.4 W 12 14 1022.3 - 1.4 Recent precip. - - - - - -
 
Date/Time
EST
Temp

°C
Wind Pressure Rain
since 9am
mm
Weather Cloud Vis
km
Sea
Height
m
Swell
Dir
 
Speed
knots
Gust
knots
hPa Trend Height
m
Period
s
Dir
28/11:30pm 9.6 WSW 16 19 1022.3 - 1.4 - - - - - - -
28/11:00pm 9.6 W 13 17 1022.5 - 1.2 - - - - - - -
28/10:30pm 9.7 W 10 13 1022.5 - 1.0 - - - - - - -
28/10:00pm 9.5 W 12 16 1022.7 - 1.0 - - - - - - -
28/09:30pm 10.6 SW 12 15 1022.9 - 0.6 - - - - - - -
28/09:00pm 10.6 SSW 19 21 1022.9 - 0.6 Rain Cloudy 20 2 4.0 - -
28/08:44pm 10.8 SW 20 26 1022.8 - 0.6 - - - - - - -
28/08:30pm 10.3 W 12 16 1022.7 - 0.6 - - - - - - -
28/08:00pm 11.9 SW 15 19 1022.4 - 0.0 - - - - - - -
28/07:30pm 12.1 SSW 20 24 1022.0 - 0.0 - - - - - - -
28/07:00pm 11.9 SSW 23 29 1021.8 - 0.0 - - - - - - -
28/06:30pm 11.8 SSW 22 25 1021.5 - 0.0 - - - - - - -
28/06:13pm 11.2 SSW 21 31 1021.5 - 0.0 - - - - - - -
28/06:00pm 12.0 SSW 21 25 1021.3 - 0.0 - - - - - - -
28/05:30pm 12.1 SSW 22 28 1020.9 - 0.0 - - - - - - -
28/05:00pm 12.3 SSW 23 29 1020.6 - 0.0 - - - - - - -
28/04:30pm 12.4 S 24 28 1020.2 - 0.0 - - - - - - -
28/04:00pm 12.5 S 23 29 1020.0 - 0.0 - - - - - - -
28/03:30pm 12.9 S 23 28 1019.8 - 0.0 - - - - - - -
28/03:00pm 12.9 SSW 23 27 1019.5 - 0.0 Distant precip. Cloudy 15 2 4.0 - -
28/02:30pm 13.2 SSW 25 29 1019.4 - 0.0 - - - - - - -
28/02:00pm 13.1 SSW 25 31 1019.3 - 0.0 - - - - - - -
28/01:30pm 12.7 SSW 25 33 1019.2 - 0.0 - - - - - - -
28/01:00pm 12.8 SSW 27 35 1019.2 - 0.0 - - - - - - -
28/12:30pm 13.5 SSW 26 31 1019.4 - 0.0 - - - - - - -
28/12:00pm 13.8 SSW 26 31 1019.4 - 0.0 - - - - - - -
28/11:47am 13.3 SSW 26 36 1019.5 - 0.0 - - - - - - -
28/11:30am 13.9 SSW 27 33 1019.4 - 0.0 - - - - - - -
28/11:00am 13.9 SSW 25 31 1019.3 - 0.0 - - - - - - -
28/10:30am 14.6 SSW 25 31 1019.1 - 0.0 - - - - - - -
28/10:00am 14.0 SSW 23 28 1019.1 - 0.0 - - - - - - -
28/09:30am 13.9 SSW 27 32 1018.9 - 0.0 - - - - - - -
28/09:00am 13.5 SSW 28 35 1018.6 - 48.4 Recent precip. Mostly cloudy 20 2 3.0 - -
28/08:30am 12.9 S 25 32 1018.3 - 48.4 - - - - - - -
28/08:00am 13.7 SSW 24 31 1017.9 - 47.8 - - - - - - -
28/07:30am 13.7 SSW 26 30 1017.5 - 47.8 - - - - - - -
28/07:00am 13.8 SSW 26 33 1017.0 - 47.8 - - - - - - -
28/06:30am 13.5 SSW 28 33 1016.5 - 47.8 - - - - - - -
28/06:00am 13.5 SSW 29 37 1015.9 - 47.8 Recent precip. - - - - - -
28/05:30am 12.8 SSW 29 36 1015.6 - 47.8 - - - - - - -
28/05:00am 13.5 SSW 30 37 1015.1 - 47.6 - - - - - - -
28/04:30am 13.6 SSW 28 34 1014.8 - 47.6 - - - - - - -
28/04:00am 13.4 SSW 30 36 1014.3 - 47.6 - - - - - - -
28/03:30am 13.3 SSW 28 34 1014.0 - 47.6 - - - - - - -
28/03:00am 13.0 S 25 31 1014.0 - 47.4 Rain Cloudy 15 1 4.0 - -
28/02:30am 12.6 S 25 30 1014.1 - 46.6 - - - - - - -
28/02:03am 12.6 SSW 20 23 1014.4 - 43.6 - - - - - - -
28/02:00am 11.5 WSW 17 25 1014.6 - 43.4 - - - - - - -
28/01:59am 11.4 WSW 17 26 1014.6 - 43.2 - - - - - - -
28/01:30am 10.9 W 21 27 1014.7 - 39.8 - - - - - - -
28/01:00am 11.0 W 21 25 1014.9 - 35.4 - - - - - - -
28/12:30am 11.0 W 22 26 1015.1 - 31.2 - - - - - - -
28/12:00am 10.9 W 20 24 1015.2 - 29.4 Rain - - - - - -
 
Date/Time
EST
Temp

°C
Wind Pressure Rain
since 9am
mm
Weather Cloud Vis
km
Sea
Height
m
Swell
Dir
 
Speed
knots
Gust
knots
hPa Trend Height
m
Period
s
Dir
27/11:30pm 11.1 W 18 23 1015.5 - 27.0 - - - - - - -
27/11:00pm 11.4 W 18 22 1015.8 - 24.6 - - - - - - -
27/10:30pm 11.6 WSW 18 23 1016.0 - 23.6 - - - - - - -
27/10:00pm 11.5 WSW 17 21 1016.1 - 23.4 - - - - - - -
27/09:30pm 11.6 WSW 20 26 1016.2 - 22.8 - - - - - - -
27/09:00pm 11.5 WSW 17 22 1016.4 - 22.2 Rain Cloudy 15 1 4.0 - -
27/08:30pm 11.6 WSW 17 22 1016.5 - 22.0 - - - - - - -
27/08:00pm 11.8 WSW 18 22 1016.6 - 22.0 - - - - - - -
27/07:30pm 12.0 WSW 19 23 1016.5 - 22.0 - - - - - - -
27/07:00pm 12.0 WSW 19 22 1016.3 - 22.0 - - - - - - -
27/06:30pm 12.3 WSW 21 28 1015.7 - 22.0 - - - - - - -
27/06:00pm 12.3 SW 21 26 1015.7 - 22.0 Recent precip. - - - - - -
27/05:30pm 12.1 SW 24 29 1015.6 - 21.8 - - - - - - -
27/05:00pm 11.9 SSW 25 30 1014.9 - 19.0 - - - - - - -
27/04:30pm 12.0 SSW 22 26 1015.3 - 15.4 - - - - - - -
27/04:00pm 12.4 SW 19 23 1015.8 - 11.6 - - - - - - -
27/03:30pm 12.0 WSW 14 17 1015.9 - 9.8 - - - - - - -
27/03:00pm 14.0 WSW 7 19 1015.8 - 1.2 Rain Cloudy 8 1 4.0 - -
27/02:30pm 14.2 E 5 7 1015.5 - 0.0 - - - - - - -
27/02:00pm 14.5 E 7 10 1015.3 - 0.0 - - - - - - -
27/01:30pm 14.6 E 9 12 1015.2 - 0.0 - - - - - - -
27/01:00pm 14.8 E 12 14 1015.5 - 0.0 - - - - - - -
27/12:30pm 15.0 ESE 11 14 1016.0 - 0.0 - - - - - - -
27/12:00pm 15.1 ESE 11 14 1016.8 - 0.0 - - - - - - -
27/11:30am 15.7 ESE 12 16 1017.1 - 0.0 - - - - - - -
27/11:00am 15.2 ESE 10 13 1017.9 - 0.0 - - - - - - -
27/10:30am 14.9 ESE 10 13 1018.3 - 0.0 - - - - - - -
27/10:00am 14.9 E 7 10 1018.4 - 0.0 - - - - - - -
27/09:30am 14.7 ESE 4 6 1018.8 - 0.0 - - - - - - -
27/09:00am 14.6 E 5 7 1019.0 - 2.8 Recent precip. - - - - - -
27/08:30am 14.1 ESE 8 11 1019.2 - 2.8 - - - - - - -
27/08:00am 14.0 E 9 11 1019.5 - 2.6 - - - - - - -
27/07:30am 13.6 E 9 12 1019.6 - 2.6 - - - - - - -
27/07:00am 13.7 ENE 12 15 1019.6 - 2.6 - - - - - - -
27/06:30am 13.5 E 6 10 1019.4 - 2.6 - - - - - - -
27/06:00am 13.8 E 9 12 1019.2 - 2.2 - - - - - - -
27/05:30am 13.9 E 9 11 1019.2 - 2.2 - - - - - - -
27/05:00am 13.7 E 10 11 1019.4 - 2.2 - - - - - - -
27/04:30am 13.9 E 10 11 1019.6 - 2.2 - - - - - - -
27/04:00am 13.9 ENE 12 15 1019.9 - 2.2 - - - - - - -
27/03:30am 13.9 ENE 9 11 1020.2 - 1.8 - - - - - - -
27/03:00am 13.8 E 11 16 1020.5 - 1.8 Fine Cloudy 25 1 4.0 - -
27/02:30am 13.8 E 12 15 1021.0 - 1.8 - - - - - - -
27/02:00am 14.0 E 8 10 1021.3 - 1.6 - - - - - - -
27/01:30am 13.8 E 9 13 1021.6 - 1.6 - - - - - - -
27/01:00am 13.5 E 9 11 1021.9 - 1.6 - - - - - - -
27/12:30am 13.3 E 15 18 1022.3 - 1.6 - - - - - - -
27/12:00am 13.8 E 11 13 1022.7 - 1.4 Recent precip. - - - - - -
 
Date/Time
EST
Temp

°C
Wind Pressure Rain
since 9am
mm
Weather Cloud Vis
km
Sea
Height
m
Swell
Dir
 
Speed
knots
Gust
knots
hPa Trend Height
m
Period
s
Dir
26/11:30pm 13.8 E 10 13 1023.1 - 1.2 - - - - - - -
26/11:00pm 13.8 ENE 12 14 1023.6 - 0.8 - - - - - - -
26/10:30pm 14.2 E 12 16 1023.9 - 0.8 - - - - - - -
26/10:00pm 14.0 E 12 15 1024.3 - 0.8 - - - - - - -
26/09:30pm 14.2 E 12 14 1024.4 - 0.8 - - - - - - -
26/09:00pm 14.2 E 11 13 1024.5 - 0.8 Fine Cloudy 20 1 4.0 - -
26/08:30pm 13.9 ENE 12 16 1024.5 - 0.8 - - - - - - -
26/08:00pm 13.7 E 8 9 1024.5 - 0.8 - - - - - - -
26/07:30pm 13.7 E 11 15 1024.5 - 0.8 - - - - - - -
26/07:00pm 13.5 E 6 8 1024.6 - 0.8 - - - - - - -
26/06:30pm 13.0 ESE 7 10 1024.7 - 0.8 - - - - - - -
26/06:00pm 12.8 ESE 8 11 1024.6 - 0.8 Recent precip. - - - - - -
26/05:30pm 12.9 E 11 13 1024.7 - 0.6 - - - - - - -
26/05:00pm 13.0 ENE 14 17 1024.6 - 0.2 - - - - - - -
26/04:30pm 13.7 E 12 15 1024.4 - 0.2 - - - - - - -
26/04:00pm 13.3 SSE 5 6 1024.6 - 0.2 - - - - - - -
26/03:30pm 13.3 ESE 5 7 1024.7 - 0.2 - - - - - - -
26/03:00pm 13.4 E 9 11 1024.9 - 0.2 Rain Mostly cloudy 10 1 4.0 - -
26/02:30pm 14.2 ESE 10 14 1024.9 - 0.0 - - - - - - -
26/02:00pm 14.5 ESE 11 14 1025.1 - 0.0 - - - - - - -
26/01:30pm 14.4 E 13 16 1025.3 - 0.0 - - - - - - -

Other Formats:

Comma delimited format used in spreadsheet applications
http://www.bom.gov.au/fwo/IDN60701/IDN60701.94933.axf

JavaScript Object Notation format (JSON) in row-major order
http://www.bom.gov.au/fwo/IDN60701/IDN60701.94933.json